FAEO

Ermelo Airport

Ermelo, South Africa
METAR FAEO 180633Z 06001KT 9999 FEW012 16/12 Q1026
Observed Flight Rules
Jan-18 @ 06:33 UTC (21 hours ago) Visual Flight Rules
Wind Visibility Clouds
60° at 1 knots 10,000+ meters
  • Few at 1,200' AGL
Temperatures Readings
Current 16°C / 61°F
Dewpoint 12°C / 54°F
Humidity 77%
Altimeter 30.3" Hg
Pressure 1026 hPa
Elevation 1737
METAR FAEO 180633Z 06001KT 9999 FEW012 16/12 Q1026
Observed Flight Rules
Jan-18 @ 06:33 UTC
(21 hours ago)
VFR
Wind Visibility
60° at 1 knots 10,000+ meters
Clouds
  • Few at 1,200' AGL
Temperature Dewpoint
16°C / 61°F 12°C / 54°F
Humidity Altimeter Pressure
77% 30.3" Hg 1026 hPa